Time;durP1;ratioP1;P1;durP2;ratioP2;P2;SDS_P1;SDS_P2;PMS_P1;PMS_P2;Temp;Humidity;BMP_temperature;BMP_pressure;BME280_temperature;BME280_humidity;BME280_pressure;Samples;Min_cycle;Max_cycle;Signal;HPM_P1;HPM_P2
2023/01/30 00:00:51;;;;;;;12.07;10.98;;;;;;;1.48;63.90;95196.72;5110501;28;20558;-69
2023/01/30 00:03:20;;;;;;;12.70;11.60;;;;;;;1.46;64.02;95196.22;5135995;28;20218;-69
2023/01/30 00:05:47;;;;;;;12.35;11.18;;;;;;;1.43;64.15;95185.91;5117574;28;20213;-69
2023/01/30 00:08:14;;;;;;;11.80;10.77;;;;;;;1.35;64.60;95190.09;5117921;28;20195;-69
2023/01/30 00:10:40;;;;;;;12.93;11.80;;;;;;;1.30;64.85;95179.28;5117729;28;20199;-69
2023/01/30 00:13:08;;;;;;;12.50;11.32;;;;;;;1.29;65.00;95183.09;5118041;28;20244;-68
2023/01/30 00:15:34;;;;;;;12.02;10.95;;;;;;;1.29;64.54;95179.56;5119456;27;20244;-68
2023/01/30 00:18:01;;;;;;;11.98;10.88;;;;;;;1.29;64.89;95176.84;5139127;27;20207;-69
2023/01/30 00:20:29;;;;;;;12.18;11.07;;;;;;;1.34;64.53;95187.66;5139467;27;20179;-68
2023/01/30 00:22:57;;;;;;;11.98;10.88;;;;;;;1.36;64.49;95180.03;5121270;27;20199;-68
2023/01/30 00:25:24;;;;;;;11.10;10.18;;;;;;;1.38;64.84;95178.66;5121522;27;20201;-68
2023/01/30 00:27:51;;;;;;;11.15;10.07;;;;;;;1.36;64.44;95183.56;5139082;27;20623;-69
2023/01/30 00:30:18;;;;;;;10.90;9.95;;;;;;;1.35;64.40;95181.94;5121529;27;20207;-68
2023/01/30 00:32:45;;;;;;;10.00;9.10;;;;;;;1.38;64.85;95180.53;5139184;27;20191;-69
2023/01/30 00:35:11;;;;;;;10.80;9.77;;;;;;;1.32;63.69;95182.53;5139211;27;20517;-68
2023/01/30 00:37:39;;;;;;;11.10;10.10;;;;;;;1.36;64.33;95178.13;5139027;27;20187;-68
2023/01/30 00:40:07;;;;;;;10.45;9.55;;;;;;;1.33;64.62;95175.19;5139325;27;20195;-69
2023/01/30 00:48:02;;;;;;;12.35;11.25;;;;;;;1.28;65.19;95167.91;5121046;27;20195;-68
2023/01/30 00:50:41;;;;;;;11.80;10.70;;;;;;;1.23;64.81;95165.22;5138756;27;20202;-68
2023/01/30 00:53:10;;;;;;;12.88;11.57;;;;;;;1.16;65.26;95162.91;5120560;27;20657;-68
2023/01/30 00:55:36;;;;;;;11.75;10.65;;;;;;;1.08;65.77;95155.38;5138777;27;20198;-68
2023/01/30 00:58:03;;;;;;;11.90;10.90;;;;;;;1.11;65.77;95162.94;5120514;27;20238;-68
2023/01/30 01:00:30;;;;;;;11.95;10.85;;;;;;;1.10;65.46;95161.34;5127412;27;20305;-68
2023/01/30 01:02:57;;;;;;;10.88;9.88;;;;;;;1.15;65.64;95160.44;5117912;28;20188;-68
2023/01/30 01:05:23;;;;;;;11.95;10.75;;;;;;;1.18;65.06;95163.41;5118347;28;20191;-68
2023/01/30 01:07:50;;;;;;;11.48;10.40;;;;;;;1.20;65.38;95158.50;5100117;28;20550;-68
2023/01/30 01:10:18;;;;;;;11.70;10.57;;;;;;;1.25;65.33;95159.53;5117921;28;20191;-68
2023/01/30 01:12:45;;;;;;;11.73;10.63;;;;;;;1.22;65.29;95154.66;5117737;28;20206;-68
2023/01/30 01:15:12;;;;;;;11.23;10.23;;;;;;;1.18;65.54;95157.97;5099953;28;20205;-68
2023/01/30 01:17:40;;;;;;;11.68;10.50;;;;;;;1.13;65.08;95146.38;5117603;28;20179;-68
2023/01/30 01:20:09;;;;;;;11.63;10.52;;;;;;;1.04;65.79;95148.91;5099825;28;20211;-68
2023/01/30 01:22:36;;;;;;;12.18;10.98;;;;;;;0.99;65.50;95140.03;5099708;28;20240;-68
2023/01/30 01:25:03;;;;;;;11.45;10.25;;;;;;;0.99;66.77;95142.75;5099810;28;20261;-69
2023/01/30 01:27:31;;;;;;;12.13;10.93;;;;;;;1.02;66.34;95142.97;5116873;28;20196;-68
2023/01/30 01:29:57;;;;;;;10.82;9.82;;;;;;;1.02;66.00;95139.41;5117263;28;20196;-68
2023/01/30 01:32:24;;;;;;;10.13;9.23;;;;;;;1.07;65.63;95142.91;5117302;28;20230;-68
2023/01/30 01:34:51;;;;;;;9.73;8.82;;;;;;;1.11;64.46;95132.25;5099348;28;20199;-68
2023/01/30 01:37:18;;;;;;;9.50;8.65;;;;;;;1.15;63.69;95133.28;5099516;28;20268;-69
2023/01/30 01:42:32;;;;;;;9.73;8.85;;;;;;;1.15;63.59;95127.84;5117052;28;20176;-68
2023/01/30 01:45:04;;;;;;;8.60;7.80;;;;;;;1.21;63.47;95134.84;5117178;28;20191;-68
2023/01/30 01:47:32;;;;;;;8.95;8.15;;;;;;;1.18;62.73;95130.00;5116836;28;20622;-68
2023/01/30 01:49:59;;;;;;;9.10;8.30;;;;;;;1.15;63.33;95136.81;5117237;28;20180;-68
2023/01/30 01:52:26;;;;;;;7.85;7.15;;;;;;;1.17;63.13;95131.09;5099111;28;20207;-68
2023/01/30 01:54:54;;;;;;;8.77;7.97;;;;;;;1.17;62.36;95128.38;5099089;28;20277;-68
2023/01/30 01:57:24;;;;;;;9.18;8.38;;;;;;;1.13;62.99;95130.88;5098997;28;20230;-68
2023/01/30 01:59:55;;;;;;;8.35;7.65;;;;;;;1.15;62.75;95134.09;5104354;27;20242;-69
2023/01/30 02:02:22;;;;;;;8.27;7.57;;;;;;;1.16;62.87;95140.31;5137348;27;20233;-69
2023/01/30 02:05:02;;;;;;;8.10;7.40;;;;;;;1.18;63.03;95138.16;5137096;27;20180;-68
2023/01/30 02:07:30;;;;;;;7.75;7.05;;;;;;;1.13;61.67;95140.94;5137303;27;20187;-68
2023/01/30 02:09:57;;;;;;;8.02;7.32;;;;;;;1.11;63.15;95138.50;5119519;27;20199;-68
2023/01/30 02:12:25;;;;;;;7.70;7.00;;;;;;;1.16;62.49;95137.63;5119228;27;20245;-68
2023/01/30 02:14:53;;;;;;;7.80;7.10;;;;;;;1.16;62.12;95132.19;5118845;27;20206;-68
2023/01/30 02:17:20;;;;;;;7.82;7.13;;;;;;;1.16;62.33;95137.63;5137237;27;20256;-68
2023/01/30 02:19:49;;;;;;;7.88;7.18;;;;;;;1.13;61.80;95127.34;5119154;27;20215;-68
2023/01/30 02:22:43;;;;;;;8.32;7.55;;;;;;;1.10;62.54;95128.75;5119264;27;20195;-68
2023/01/30 02:25:23;;;;;;;8.25;7.47;;;;;;;1.14;61.87;95129.78;5126684;27;20210;-68
2023/01/30 02:28:24;;;;;;;8.40;7.53;;;;;;;1.12;62.31;95129.25;5136765;27;20202;-68
2023/01/30 02:31:25;;;;;;;8.20;7.47;;;;;;;1.07;62.72;95131.22;5118509;27;20201;-68
2023/01/30 02:34:01;;;;;;;8.75;7.95;;;;;;;1.04;62.57;95132.59;5119260;27;20198;-68
2023/01/30 02:36:31;;;;;;;8.85;7.95;;;;;;;1.06;63.08;95129.63;5118820;27;20224;-68
2023/01/30 02:39:04;;;;;;;8.35;7.55;;;;;;;1.03;62.83;95132.91;5136157;27;20215;-68
2023/01/30 02:41:35;;;;;;;8.45;7.65;;;;;;;0.94;63.33;95122.69;5136654;27;20175;-68
2023/01/30 02:44:05;;;;;;;8.65;7.85;;;;;;;0.98;63.49;95119.38;5118575;27;20202;-68
2023/01/30 02:46:43;;;;;;;7.88;7.18;;;;;;;0.98;62.89;95116.66;5118678;27;20222;-68
2023/01/30 02:49:14;;;;;;;7.97;7.28;;;;;;;1.03;63.33;95117.41;5118623;27;20277;-68
2023/01/30 02:51:43;;;;;;;8.32;7.53;;;;;;;1.05;62.98;95119.84;5118482;27;20195;-68
2023/01/30 02:54:11;;;;;;;8.52;7.72;;;;;;;1.03;62.80;95113.91;5136530;27;20187;-68
2023/01/30 02:56:46;;;;;;;8.98;8.07;;;;;;;1.03;62.86;95120.13;5136446;27;20198;-68
2023/01/30 02:59:14;;;;;;;9.35;8.35;;;;;;;1.05;63.04;95125.25;5118494;27;20271;-69
2023/01/30 03:02:13;;;;;;;9.38;8.55;;;;;;;1.07;62.54;95128.50;5098387;28;20192;-68
2023/01/30 03:05:03;;;;;;;9.25;8.38;;;;;;;1.04;62.18;95129.91;5115033;28;20204;-69
2023/01/30 03:07:37;;;;;;;8.15;7.45;;;;;;;1.03;62.70;95130.19;5098073;28;20203;-69
2023/01/30 03:10:09;;;;;;;9.00;8.20;;;;;;;1.06;62.37;95135.06;5114583;28;20607;-68
2023/01/30 03:12:41;;;;;;;8.68;7.88;;;;;;;1.13;62.34;95127.34;5097762;28;20199;-68
2023/01/30 03:15:12;;;;;;;8.20;7.50;;;;;;;1.11;62.31;95118.69;5115853;28;20253;-69
2023/01/30 03:17:42;;;;;;;8.10;7.30;;;;;;;1.03;61.91;95119.34;5098091;28;20576;-69
2023/01/30 03:20:12;;;;;;;8.40;7.60;;;;;;;0.95;62.19;95116.16;5097870;28;20226;-69
2023/01/30 03:22:39;;;;;;;8.85;8.05;;;;;;;0.95;62.27;95115.34;5115580;28;20240;-68
2023/01/30 03:25:07;;;;;;;8.45;7.68;;;;;;;0.97;62.86;95110.44;5097968;28;20192;-69
2023/01/30 03:27:35;;;;;;;9.57;8.77;;;;;;;0.98;62.63;95103.09;5115669;28;20188;-69
2023/01/30 03:30:01;;;;;;;9.30;8.50;;;;;;;0.97;62.70;95088.69;5097508;28;20651;-68
2023/01/30 03:32:28;;;;;;;9.25;8.45;;;;;;;0.98;62.59;95089.50;5097611;28;20226;-69
2023/01/30 03:34:55;;;;;;;8.77;7.97;;;;;;;0.97;62.88;95094.13;5114574;28;20195;-69
2023/01/30 03:37:23;;;;;;;10.02;8.98;;;;;;;0.94;62.91;95092.81;5097881;28;20265;-69
2023/01/30 03:39:50;;;;;;;9.73;8.75;;;;;;;0.95;63.67;95090.91;5115073;28;20639;-69
2023/01/30 03:42:16;;;;;;;9.60;8.70;;;;;;;0.96;63.12;95090.59;5115362;28;20249;-69
2023/01/30 03:44:43;;;;;;;9.77;8.88;;;;;;;0.93;63.04;95093.91;5097545;28;20549;-69
2023/01/30 03:47:10;;;;;;;10.68;9.68;;;;;;;0.98;63.41;95086.78;5114799;28;20257;-68
2023/01/30 03:49:37;;;;;;;10.13;9.23;;;;;;;0.95;63.48;95082.78;5114896;28;20541;-69
2023/01/30 03:52:04;;;;;;;10.38;9.38;;;;;;;0.90;63.91;95082.81;5118615;28;20194;-68
2023/01/30 03:54:32;;;;;;;9.57;8.68;;;;;;;0.90;63.90;95088.25;5101606;28;20207;-69
2023/01/30 03:56:59;;;;;;;10.65;9.75;;;;;;;0.91;63.83;95082.53;5118767;28;20254;-68
2023/01/30 03:59:25;;;;;;;10.70;9.70;;;;;;;0.88;63.67;95085.03;5102870;27;20207;-69
2023/01/30 04:01:52;;;;;;;10.77;9.68;;;;;;;0.88;64.60;95083.13;5139926;27;20229;-68
2023/01/30 04:04:20;;;;;;;10.52;9.52;;;;;;;0.90;64.42;95080.09;5121620;27;20539;-68
2023/01/30 04:06:47;;;;;;;9.73;8.68;;;;;;;0.90;64.47;95083.63;5121773;27;20191;-68
2023/01/30 04:09:13;;;;;;;10.02;9.13;;;;;;;0.91;63.97;95074.41;5139685;27;20245;-68
2023/01/30 04:11:41;;;;;;;10.25;9.25;;;;;;;0.95;64.61;95075.44;5121938;27;20199;-68
2023/01/30 04:14:08;;;;;;;9.00;8.15;;;;;;;0.99;63.96;95080.28;5121680;27;20629;-68
2023/01/30 04:16:35;;;;;;;10.48;9.50;;;;;;;0.98;64.26;95078.63;5121543;27;20183;-68
2023/01/30 04:19:01;;;;;;;10.35;9.45;;;;;;;1.00;63.33;95076.44;5121470;27;20244;-69
2023/01/30 04:21:28;;;;;;;10.35;9.45;;;;;;;0.94;64.38;95079.25;5121727;27;20250;-68
2023/01/30 04:23:55;;;;;;;10.13;9.32;;;;;;;0.87;63.91;95076.09;5139482;27;20194;-69
2023/01/30 04:26:22;;;;;;;9.88;8.98;;;;;;;0.81;64.07;95084.56;5121512;27;20187;-69
2023/01/30 04:28:50;;;;;;;11.02;10.02;;;;;;;0.80;64.01;95072.91;5139246;27;20203;-69
2023/01/30 04:31:17;;;;;;;11.07;10.07;;;;;;;0.79;64.15;95075.91;5121270;27;20252;-69
2023/01/30 04:33:43;;;;;;;11.10;10.02;;;;;;;0.76;64.92;95076.47;5139172;27;20183;-69
2023/01/30 04:36:10;;;;;;;11.45;10.45;;;;;;;0.71;64.89;95078.16;5138828;27;20194;-69
2023/01/30 04:38:37;;;;;;;11.10;10.10;;;;;;;0.71;65.58;95075.44;5120919;27;20195;-70
2023/01/30 04:41:04;;;;;;;11.27;10.18;;;;;;;0.65;65.37;95071.19;5139240;27;20207;-69
2023/01/30 04:43:31;;;;;;;11.48;10.48;;;;;;;0.65;65.20;95068.47;5120702;27;20203;-69
2023/01/30 04:45:59;;;;;;;11.43;10.32;;;;;;;0.66;65.16;95067.38;5138791;27;20253;-69
2023/01/30 04:48:26;;;;;;;10.68;9.68;;;;;;;0.67;65.58;95068.97;5120866;27;20225;-69
2023/01/30 04:50:55;;;;;;;10.25;9.32;;;;;;;0.64;65.49;95055.19;5120777;27;20195;-69
2023/01/30 04:53:23;;;;;;;11.52;10.45;;;;;;;0.62;66.03;95060.91;5139032;27;20186;-69
2023/01/30 04:55:49;;;;;;;11.52;10.43;;;;;;;0.57;65.73;95052.00;5138578;27;20194;-69
2023/01/30 04:58:18;;;;;;;11.43;10.38;;;;;;;0.52;65.60;95039.31;5138836;27;20240;-69
2023/01/30 05:00:45;;;;;;;11.32;10.23;;;;;;;0.54;66.29;95055.31;5120058;27;20258;-69
2023/01/30 05:03:13;;;;;;;11.48;10.45;;;;;;;0.56;66.31;95042.25;5137794;27;20186;-69
2023/01/30 05:05:41;;;;;;;11.30;10.23;;;;;;;0.54;66.55;95044.44;5121319;27;20199;-71
2023/01/30 05:08:08;;;;;;;12.40;11.20;;;;;;;0.52;66.91;95047.47;5138718;27;20232;-69
2023/01/30 05:10:34;;;;;;;11.38;10.27;;;;;;;0.48;66.92;95046.44;5138138;27;20553;-71
2023/01/30 05:13:02;;;;;;;11.43;10.32;;;;;;;0.51;66.31;95045.03;5120595;27;20195;-72
2023/01/30 05:15:29;;;;;;;11.75;10.63;;;;;;;0.46;67.06;95043.19;5121033;27;20219;-68
2023/01/30 05:17:56;;;;;;;11.20;10.20;;;;;;;0.48;66.99;95044.53;5120336;27;20194;-69
2023/01/30 05:20:24;;;;;;;11.27;10.27;;;;;;;0.50;67.05;95043.41;5138405;27;20199;-68
2023/01/30 05:22:51;;;;;;;11.32;10.38;;;;;;;0.51;67.03;95053.16;5138318;27;20198;-69
2023/01/30 05:25:18;;;;;;;12.77;11.57;;;;;;;0.50;67.53;95052.34;5138374;27;20191;-68
2023/01/30 05:27:45;;;;;;;12.02;10.93;;;;;;;0.50;67.17;95052.34;5138089;27;20191;-69
2023/01/30 05:30:12;;;;;;;12.73;11.55;;;;;;;0.52;67.67;95061.03;5120254;27;20198;-68
2023/01/30 05:32:38;;;;;;;13.15;11.95;;;;;;;0.52;67.09;95061.03;5120062;27;20202;-69
2023/01/30 05:35:06;;;;;;;13.10;11.90;;;;;;;0.50;67.04;95062.41;5119763;27;20203;-69
2023/01/30 05:37:36;;;;;;;13.60;12.30;;;;;;;0.51;67.83;95064.84;5138014;27;20183;-69
2023/01/30 05:40:03;;;;;;;12.68;11.48;;;;;;;0.52;67.83;95062.94;5137860;27;20207;-68
2023/01/30 05:42:30;;;;;;;13.48;12.27;;;;;;;0.52;68.10;95058.31;5138077;27;20195;-68
2023/01/30 05:44:57;;;;;;;14.23;12.93;;;;;;;0.53;68.30;95061.84;5137876;27;20184;-68
2023/01/30 05:47:24;;;;;;;13.55;12.45;;;;;;;0.52;67.86;95060.22;5137881;27;20194;-68
2023/01/30 05:49:50;;;;;;;14.00;12.60;;;;;;;0.51;68.25;95062.13;5137952;27;20190;-68
2023/01/30 05:52:17;;;;;;;13.85;12.55;;;;;;;0.48;68.08;95066.22;5137805;27;20259;-68
2023/01/30 05:54:45;;;;;;;12.95;11.80;;;;;;;0.47;67.97;95061.91;5119402;27;20207;-68
2023/01/30 05:57:13;;;;;;;13.73;12.43;;;;;;;0.50;68.75;95071.34;5119602;27;20259;-68
2023/01/30 05:59:40;;;;;;;13.65;12.43;;;;;;;0.48;68.34;95074.38;5116750;27;20264;-68
2023/01/30 06:02:06;;;;;;;13.05;11.88;;;;;;;0.47;68.42;95071.94;5117195;28;20176;-68
2023/01/30 06:04:34;;;;;;;14.43;13.13;;;;;;;0.40;68.12;95066.88;5098820;28;20611;-68
2023/01/30 06:07:01;;;;;;;15.75;14.13;;;;;;;0.42;68.06;95072.81;5116873;28;20219;-71
2023/01/30 06:09:28;;;;;;;15.95;14.48;;;;;;;0.35;67.90;95074.25;5098983;28;20215;-70
2023/01/30 06:11:56;;;;;;;15.13;13.68;;;;;;;0.34;69.13;95078.06;5117166;28;20195;-68
2023/01/30 06:14:23;;;;;;;16.02;14.52;;;;;;;0.39;69.37;95072.56;5098624;28;20256;-67
2023/01/30 06:16:50;;;;;;;17.15;15.55;;;;;;;0.38;69.51;95068.25;5116784;28;20183;-67
2023/01/30 06:19:17;;;;;;;16.98;15.38;;;;;;;0.37;69.16;95066.63;5081935;28;20207;-67
2023/01/30 06:21:44;;;;;;;17.20;15.60;;;;;;;0.40;68.77;95061.44;5098865;28;20215;-67
2023/01/30 06:24:12;;;;;;;18.25;16.45;;;;;;;0.38;68.81;95063.63;5098484;28;20203;-68
2023/01/30 06:26:39;;;;;;;18.00;16.30;;;;;;;0.40;68.70;95061.44;5116803;28;20175;-67
2023/01/30 06:29:07;;;;;;;18.95;17.25;;;;;;;0.41;68.42;95060.34;5098736;28;20208;-67
2023/01/30 06:31:34;;;;;;;17.27;15.68;;;;;;;0.42;68.77;95066.56;5116338;28;20183;-68
2023/01/30 06:34:01;;;;;;;17.55;15.85;;;;;;;0.41;69.03;95064.97;5098405;28;20191;-68
2023/01/30 06:36:27;;;;;;;18.23;16.42;;;;;;;0.40;69.04;95061.44;5116076;28;20196;-68
2023/01/30 06:38:54;;;;;;;17.25;15.70;;;;;;;0.37;68.85;95064.72;5098380;28;20210;-68
2023/01/30 06:41:21;;;;;;;19.35;17.45;;;;;;;0.38;68.85;95069.06;5098497;28;20287;-67
2023/01/30 06:43:48;;;;;;;17.92;16.23;;;;;;;0.34;69.35;95069.94;5115885;28;20583;-67
2023/01/30 06:46:16;;;;;;;17.90;16.23;;;;;;;0.34;69.09;95064.50;5098455;28;20203;-67
2023/01/30 06:48:42;;;;;;;18.15;16.35;;;;;;;0.36;69.04;95071.22;5098134;28;20199;-67
2023/01/30 06:51:09;;;;;;;18.98;17.20;;;;;;;0.37;69.15;95063.94;5098670;28;20200;-67
2023/01/30 06:53:36;;;;;;;18.45;16.67;;;;;;;0.37;68.78;95066.63;5098346;28;20203;-67
2023/01/30 06:56:03;;;;;;;19.52;17.63;;;;;;;0.34;68.87;95070.72;5098401;28;20207;-67
2023/01/30 06:58:30;;;;;;;18.30;16.60;;;;;;;0.37;69.40;95069.34;5115850;28;20191;-67
2023/01/30 07:00:57;;;;;;;17.33;15.60;;;;;;;0.37;68.73;95072.06;5111526;27;20230;-67
2023/01/30 07:03:25;;;;;;;17.00;15.32;;;;;;;0.35;68.33;95075.06;5136520;27;20179;-67
2023/01/30 07:05:52;;;;;;;16.55;15.00;;;;;;;0.39;68.56;95078.00;5136071;27;20193;-67
2023/01/30 07:08:18;;;;;;;16.20;14.70;;;;;;;0.39;67.57;95078.00;5118380;27;20585;-67
2023/01/30 07:10:45;;;;;;;16.70;15.10;;;;;;;0.42;68.21;95074.72;5136305;27;20182;-67
2023/01/30 07:13:12;;;;;;;16.95;15.43;;;;;;;0.36;67.96;95081.28;5136234;27;20195;-67
2023/01/30 07:15:39;;;;;;;16.27;14.68;;;;;;;0.26;67.41;95086.84;5136262;27;20183;-67
2023/01/30 07:18:06;;;;;;;16.52;14.93;;;;;;;0.30;68.10;95085.16;5118415;27;20214;-67
2023/01/30 07:20:34;;;;;;;16.63;15.02;;;;;;;0.32;67.92;95081.06;5135710;27;20206;-67
2023/01/30 07:23:01;;;;;;;16.48;14.98;;;;;;;0.37;68.60;95080.22;5135844;28;20648;-67
2023/01/30 07:25:28;;;;;;;17.25;15.75;;;;;;;0.43;68.30;95079.03;5135440;27;20252;-68
2023/01/30 07:27:58;;;;;;;17.10;15.40;;;;;;;0.46;68.29;95083.88;5118042;28;20226;-67
2023/01/30 07:30:25;;;;;;;15.65;14.10;;;;;;;0.42;67.68;95082.84;5117911;28;20536;-67
2023/01/30 07:32:53;;;;;;;16.55;14.85;;;;;;;0.43;68.44;95085.25;5117989;28;20198;-67
2023/01/30 07:35:20;;;;;;;17.52;15.82;;;;;;;0.40;67.55;95087.75;5118551;28;20195;-67
2023/01/30 07:37:49;;;;;;;17.10;15.50;;;;;;;0.40;67.65;95094.00;5118133;28;20203;-67
2023/01/30 07:40:16;;;;;;;18.70;16.90;;;;;;;0.42;68.45;95099.13;5135856;28;20223;-67
2023/01/30 07:42:43;;;;;;;17.15;15.48;;;;;;;0.45;67.64;95098.56;5135581;28;20174;-67
2023/01/30 07:45:10;;;;;;;16.98;15.38;;;;;;;0.45;67.56;95098.56;5135853;28;20179;-67
2023/01/30 07:47:37;;;;;;;17.00;15.30;;;;;;;0.48;67.31;95092.56;5117848;28;20199;-67
2023/01/30 07:50:05;;;;;;;16.42;14.93;;;;;;;0.43;66.51;95098.03;5135838;28;20187;-67
2023/01/30 07:52:31;;;;;;;16.83;15.30;;;;;;;0.42;67.28;95088.28;5135843;28;20244;-67
2023/01/30 07:54:59;;;;;;;16.35;14.80;;;;;;;0.44;66.96;95100.47;5117853;28;20199;-67
2023/01/30 07:57:26;;;;;;;16.15;14.57;;;;;;;0.49;66.75;95088.75;5136467;28;20207;-69
2023/01/30 07:59:53;;;;;;;15.55;14.15;;;;;;;0.52;66.49;95073.81;5130988;28;20304;-69
2023/01/30 08:02:19;;;;;;;16.15;14.57;;;;;;;0.55;66.48;95074.03;5115183;28;20216;-69
2023/01/30 08:04:47;;;;;;;15.63;14.15;;;;;;;0.53;66.03;95067.25;5115375;28;20199;-69
2023/01/30 08:07:14;;;;;;;15.85;14.35;;;;;;;0.51;66.23;95064.84;5097022;28;20192;-68
2023/01/30 08:09:41;;;;;;;15.27;13.88;;;;;;;0.51;66.37;95066.72;5114910;28;20196;-69
2023/01/30 08:12:09;;;;;;;16.20;14.60;;;;;;;0.57;66.00;95062.88;5115238;28;20181;-68
2023/01/30 08:14:36;;;;;;;15.13;13.73;;;;;;;0.60;66.48;95067.72;5115131;28;20184;-69
2023/01/30 08:17:02;;;;;;;16.10;14.60;;;;;;;0.59;66.29;95063.41;5115685;28;20184;-68
2023/01/30 08:19:29;;;;;;;14.13;12.82;;;;;;;0.59;66.18;95058.78;5097506;28;20211;-69
2023/01/30 08:21:56;;;;;;;16.10;14.50;;;;;;;0.62;65.75;95062.81;5097156;28;20224;-69
2023/01/30 08:24:23;;;;;;;15.77;14.27;;;;;;;0.64;65.85;95058.69;5097100;28;20199;-68
2023/01/30 08:26:49;;;;;;;16.08;14.48;;;;;;;0.63;65.53;95051.66;5097162;28;20207;-68
2023/01/30 08:29:17;;;;;;;14.68;13.27;;;;;;;0.67;65.29;95051.91;5097777;28;20196;-68
2023/01/30 08:31:44;;;;;;;18.00;16.15;;;;;;;0.70;65.09;95056.75;5114959;28;20245;-69
2023/01/30 08:34:11;;;;;;;15.57;14.07;;;;;;;0.68;64.98;95046.16;5097193;28;20249;-68
2023/01/30 08:36:38;;;;;;;15.95;14.48;;;;;;;0.69;64.46;95044.25;5114758;28;20208;-68
2023/01/30 08:39:05;;;;;;;14.05;12.75;;;;;;;0.72;64.91;95044.47;5100616;28;20211;-69
2023/01/30 08:41:32;;;;;;;14.52;13.13;;;;;;;0.76;64.13;95043.91;5100828;28;20212;-69
2023/01/30 08:43:58;;;;;;;13.32;12.13;;;;;;;0.75;64.28;95040.38;5100760;28;20200;-69
2023/01/30 08:46:26;;;;;;;11.85;10.75;;;;;;;0.77;63.98;95042.81;5100237;28;20272;-69
2023/01/30 08:48:53;;;;;;;12.73;11.52;;;;;;;0.79;63.93;95033.25;5100226;28;20623;-69
2023/01/30 08:51:20;;;;;;;14.23;12.93;;;;;;;0.82;62.94;95035.41;5118248;28;20199;-69
2023/01/30 08:53:46;;;;;;;14.18;12.88;;;;;;;0.85;62.58;95042.16;5100598;28;20203;-69
2023/01/30 08:56:13;;;;;;;14.55;13.15;;;;;;;0.76;62.71;95036.56;5100308;28;20253;-69
2023/01/30 08:58:42;;;;;;;12.68;11.48;;;;;;;0.74;62.92;95027.09;5118156;28;20199;-69
2023/01/30 09:01:09;;;;;;;13.48;12.07;;;;;;;0.77;62.93;95030.06;5118087;28;20236;-69
2023/01/30 09:03:37;;;;;;;12.73;11.63;;;;;;;0.77;62.51;95018.38;5100235;28;20196;-69
2023/01/30 09:06:05;;;;;;;12.32;11.15;;;;;;;0.75;62.48;95023.28;5118014;28;20183;-69
2023/01/30 09:08:31;;;;;;;11.48;10.48;;;;;;;0.79;62.66;95022.41;5117847;28;20202;-69
2023/01/30 09:10:59;;;;;;;11.93;10.82;;;;;;;0.82;62.23;95023.72;5117939;28;20183;-69
2023/01/30 09:13:25;;;;;;;14.05;12.85;;;;;;;0.79;62.47;95019.69;5100170;28;20223;-69
2023/01/30 09:15:52;;;;;;;14.45;13.15;;;;;;;0.78;63.31;95012.66;5099826;28;20631;-69
2023/01/30 09:18:19;;;;;;;13.23;12.02;;;;;;;0.80;63.77;95015.91;5117764;28;20219;-69
2023/01/30 09:20:47;;;;;;;12.13;11.02;;;;;;;0.80;64.23;95015.06;5117659;28;20218;-69
2023/01/30 09:23:14;;;;;;;11.93;10.82;;;;;;;0.81;64.61;95016.69;5117654;28;20199;-69
2023/01/30 09:25:41;;;;;;;11.38;10.48;;;;;;;0.77;64.45;95005.63;5117657;28;20249;-69
2023/01/30 09:28:08;;;;;;;11.55;10.45;;;;;;;0.75;64.40;95007.81;5099862;28;20245;-69
2023/01/30 09:30:35;;;;;;;11.27;10.18;;;;;;;0.78;65.09;95014.56;5117218;28;20514;-69
2023/01/30 09:33:01;;;;;;;11.98;10.88;;;;;;;0.71;65.16;95004.88;5100328;28;20254;-69
2023/01/30 09:35:28;;;;;;;11.82;10.63;;;;;;;0.75;65.20;95010.50;5099864;28;20203;-69
2023/01/30 09:37:57;;;;;;;12.65;11.35;;;;;;;0.80;65.33;95013.19;5099502;28;20253;-69
2023/01/30 09:40:27;;;;;;;12.63;11.32;;;;;;;0.81;64.65;95005.84;5099413;28;20188;-69
2023/01/30 09:43:14;;;;;;;11.43;10.32;;;;;;;0.79;65.42;94991.72;5117096;28;20285;-69
2023/01/30 09:45:49;;;;;;;12.70;11.57;;;;;;;0.79;65.23;94992.53;5099342;28;20195;-69
2023/01/30 09:48:21;;;;;;;13.52;12.23;;;;;;;0.82;66.03;94993.88;5116849;28;20196;-69
2023/01/30 09:51:20;;;;;;;13.27;12.00;;;;;;;0.84;65.81;94997.91;5099057;28;20212;-69
2023/01/30 09:53:58;;;;;;;12.95;11.80;;;;;;;0.88;66.18;94990.00;5114229;28;20222;-69
2023/01/30 09:56:24;;;;;;;11.93;10.85;;;;;;;0.90;66.00;94993.19;5116803;28;20199;-69
2023/01/30 09:58:54;;;;;;;11.55;10.45;;;;;;;0.90;65.66;94988.56;5098843;28;20192;-69
2023/01/30 10:01:25;;;;;;;11.43;10.40;;;;;;;0.88;65.74;94981.84;5116777;28;20296;-69
2023/01/30 10:04:03;;;;;;;11.73;10.73;;;;;;;0.92;66.29;94977.44;5116962;28;20245;-69
2023/01/30 10:06:31;;;;;;;12.07;10.90;;;;;;;0.93;66.11;94971.69;5098664;28;20199;-70
2023/01/30 10:09:03;;;;;;;12.27;10.98;;;;;;;0.93;65.67;94966.25;5116381;28;20628;-69
2023/01/30 10:11:46;;;;;;;13.57;12.18;;;;;;;0.94;64.99;94958.91;5098841;28;20199;-69
2023/01/30 10:14:26;;;;;;;14.00;12.70;;;;;;;0.90;64.62;94964.13;5116313;28;20177;-69
2023/01/30 10:17:00;;;;;;;15.18;13.77;;;;;;;0.83;65.05;94958.25;5098575;28;20510;-69
2023/01/30 10:19:47;;;;;;;13.80;12.52;;;;;;;0.84;65.22;94954.47;5116508;28;20679;-69
2023/01/30 10:22:23;;;;;;;13.35;12.13;;;;;;;0.86;64.67;94946.81;5116644;28;20505;-69
2023/01/30 10:24:59;;;;;;;13.35;12.05;;;;;;;0.84;64.67;94945.53;5116405;28;20194;-69
2023/01/30 10:27:26;;;;;;;14.13;12.73;;;;;;;0.82;64.16;94943.09;5098515;28;20260;-69
2023/01/30 10:29:55;;;;;;;13.35;12.07;;;;;;;0.72;63.71;94938.59;5098298;28;20192;-69
2023/01/30 10:32:27;;;;;;;13.32;12.02;;;;;;;0.63;63.73;94932.22;5098363;28;20195;-69
2023/01/30 10:34:58;;;;;;;12.57;11.38;;;;;;;0.66;64.03;94928.13;5098691;28;20196;-69
2023/01/30 10:37:30;;;;;;;12.90;11.70;;;;;;;0.68;63.43;94921.28;5098668;28;20202;-70
2023/01/30 10:40:03;;;;;;;12.98;11.73;;;;;;;0.66;63.94;94903.69;5098638;28;20195;-70
2023/01/30 10:42:36;;;;;;;13.05;11.90;;;;;;;0.67;63.71;94908.81;5098108;28;20574;-69
2023/01/30 10:45:12;;;;;;;13.05;11.75;;;;;;;0.67;63.52;94900.69;5116373;28;20180;-69
2023/01/30 10:47:48;;;;;;;14.43;13.00;;;;;;;0.77;63.70;94899.72;5098462;28;20198;-69
2023/01/30 10:50:17;;;;;;;13.98;12.57;;;;;;;0.79;63.09;94886.66;5115968;28;20209;-69
2023/01/30 10:52:50;;;;;;;15.27;13.68;;;;;;;0.82;63.12;94882.53;5098210;28;20595;-69
2023/01/30 10:55:27;;;;;;;13.90;12.50;;;;;;;0.77;62.80;94878.00;5116222;28;20187;-69
2023/01/30 10:57:58;;;;;;;13.27;11.93;;;;;;;0.77;64.00;94867.16;5116180;28;20237;-69
2023/01/30 11:00:29;;;;;;;13.55;12.23;;;;;;;0.83;63.73;94863.22;5114786;28;20238;-69
2023/01/30 11:03:09;;;;;;;13.60;12.30;;;;;;;0.85;63.17;94861.03;5097897;28;20219;-69
2023/01/30 11:05:42;;;;;;;12.60;11.40;;;;;;;0.84;62.90;94855.91;5116260;28;20183;-69
2023/01/30 11:08:16;;;;;;;12.85;11.60;;;;;;;0.75;63.49;94844.09;5115560;28;20180;-69
2023/01/30 11:10:45;;;;;;;14.00;12.60;;;;;;;0.78;62.98;94846.22;5097813;28;20198;-69
2023/01/30 11:13:17;;;;;;;13.32;12.02;;;;;;;0.74;62.84;94837.88;5098642;28;20256;-69
2023/01/30 11:15:45;;;;;;;13.45;12.15;;;;;;;0.80;63.24;94828.56;5098173;28;20195;-69
2023/01/30 11:18:12;;;;;;;13.30;12.02;;;;;;;0.88;63.42;94825.16;5098037;28;20195;-69
2023/01/30 11:20:40;;;;;;;13.50;12.20;;;;;;;0.87;63.30;94825.44;5115457;28;20190;-69
2023/01/30 11:23:11;;;;;;;13.40;12.10;;;;;;;0.89;63.41;94807.75;5097756;28;20269;-69
2023/01/30 11:25:50;;;;;;;13.50;12.20;;;;;;;0.92;63.21;94812.59;5097412;28;20208;-69
2023/01/30 11:28:18;;;;;;;13.23;11.98;;;;;;;1.00;63.70;94804.84;5115664;28;20184;-69
2023/01/30 11:30:50;;;;;;;13.77;12.55;;;;;;;1.01;62.75;94803.75;5097267;28;20199;-69
2023/01/30 11:33:20;;;;;;;13.93;12.52;;;;;;;1.03;62.63;94796.13;5115312;28;20187;-69
2023/01/30 11:35:53;;;;;;;13.25;11.88;;;;;;;1.03;62.80;94793.41;5097806;28;20596;-69
2023/01/30 11:38:22;;;;;;;12.93;11.73;;;;;;;1.05;63.11;94802.03;5097756;28;20195;-69
2023/01/30 11:40:51;;;;;;;12.93;11.63;;;;;;;1.03;62.75;94786.06;5115464;28;20509;-69
2023/01/30 11:43:19;;;;;;;13.63;12.32;;;;;;;1.07;63.19;94786.25;5098121;28;20647;-69
2023/01/30 11:45:48;;;;;;;13.23;12.02;;;;;;;1.04;62.85;94784.13;5115084;28;20673;-69